sensor_id;sensor_type;location;lat;lon;timestamp;temperature;humidity
12374;DHT22;6251;51.762;8.660;2023-02-01T05:05:03;4.60;99.90
12374;DHT22;6251;51.762;8.660;2023-02-01T05:15:04;4.50;99.90
12374;DHT22;6251;51.762;8.660;2023-02-01T05:25:05;4.50;99.90
12374;DHT22;6251;51.762;8.660;2023-02-01T05:35:06;4.50;99.90
12374;DHT22;6251;51.762;8.660;2023-02-01T05:45:07;4.60;99.90
12374;DHT22;6251;51.762;8.660;2023-02-01T05:55:08;4.50;99.90
12374;DHT22;6251;51.762;8.660;2023-02-01T06:05:09;4.50;99.90
12374;DHT22;6251;51.762;8.660;2023-02-01T06:15:10;4.50;99.90
12374;DHT22;6251;51.762;8.660;2023-02-01T06:25:11;4.60;99.90
12374;DHT22;6251;51.762;8.660;2023-02-01T06:35:11;4.70;99.90
12374;DHT22;6251;51.762;8.660;2023-02-01T06:45:16;4.80;99.90
12374;DHT22;6251;51.762;8.660;2023-02-01T06:55:16;4.90;99.90
12374;DHT22;6251;51.762;8.660;2023-02-01T07:05:19;5.00;99.90
12374;DHT22;6251;51.762;8.660;2023-02-01T07:15:34;5.00;99.90
12374;DHT22;6251;51.762;8.660;2023-02-01T07:25:35;5.10;99.90
12374;DHT22;6251;51.762;8.660;2023-02-01T07:35:35;5.10;99.90
12374;DHT22;6251;51.762;8.660;2023-02-01T07:45:36;5.10;99.90
12374;DHT22;6251;51.762;8.660;2023-02-01T07:55:40;5.10;99.90
12374;DHT22;6251;51.762;8.660;2023-02-01T08:05:42;5.10;99.90
12374;DHT22;6251;51.762;8.660;2023-02-01T08:15:43;5.20;99.90
12374;DHT22;6251;51.762;8.660;2023-02-01T08:25:44;5.20;99.90
12374;DHT22;6251;51.762;8.660;2023-02-01T08:35:44;5.20;99.90
12374;DHT22;6251;51.762;8.660;2023-02-01T08:45:45;5.20;99.90
12374;DHT22;6251;51.762;8.660;2023-02-01T08:55:47;5.30;99.90
12374;DHT22;6251;51.762;8.660;2023-02-01T09:05:47;5.50;99.90
12374;DHT22;6251;51.762;8.660;2023-02-01T09:15:50;5.40;99.90
12374;DHT22;6251;51.762;8.660;2023-02-01T09:25:51;5.60;99.90
12374;DHT22;6251;51.762;8.660;2023-02-01T09:36:00;5.60;99.90
12374;DHT22;6251;51.762;8.660;2023-02-01T09:46:24;5.60;99.90
12374;DHT22;6251;51.762;8.660;2023-02-01T10:27:20;5.60;99.90
12374;DHT22;6251;51.762;8.660;2023-02-01T10:37:26;5.70;99.90
12374;DHT22;6251;51.762;8.660;2023-02-01T10:47:27;5.70;99.90
12374;DHT22;6251;51.762;8.660;2023-02-01T10:57:28;5.80;99.90
12374;DHT22;6251;51.762;8.660;2023-02-01T11:07:30;5.80;99.90
12374;DHT22;6251;51.762;8.660;2023-02-01T11:17:38;5.90;99.90
12374;DHT22;6251;51.762;8.660;2023-02-01T11:27:39;5.90;99.90
12374;DHT22;6251;51.762;8.660;2023-02-01T11:37:42;6.00;99.90
12374;DHT22;6251;51.762;8.660;2023-02-01T11:47:43;6.00;99.90
12374;DHT22;6251;51.762;8.660;2023-02-01T12:08:25;6.00;99.90
12374;DHT22;6251;51.762;8.660;2023-02-01T12:39:23;5.60;99.90
12374;DHT22;6251;51.762;8.660;2023-02-01T12:49:43;5.40;99.90
12374;DHT22;6251;51.762;8.660;2023-02-01T13:00:03;5.20;99.90
12374;DHT22;6251;51.762;8.660;2023-02-01T13:20:29;4.90;99.90
12374;DHT22;6251;51.762;8.660;2023-02-01T13:30:48;4.90;99.90
12374;DHT22;6251;51.762;8.660;2023-02-01T13:41:16;4.80;99.90
12374;DHT22;6251;51.762;8.660;2023-02-01T13:51:36;4.80;99.90
12374;DHT22;6251;51.762;8.660;2023-02-01T14:01:37;4.90;99.90
12374;DHT22;6251;51.762;8.660;2023-02-01T14:21:50;5.00;99.90
12374;DHT22;6251;51.762;8.660;2023-02-01T14:42:38;5.30;99.90
12374;DHT22;6251;51.762;8.660;2023-02-01T14:52:43;5.40;99.90
12374;DHT22;6251;51.762;8.660;2023-02-01T15:02:45;5.40;99.90
12374;DHT22;6251;51.762;8.660;2023-02-01T15:12:56;5.30;99.90
12374;DHT22;6251;51.762;8.660;2023-02-01T15:22:58;5.20;99.90
12374;DHT22;6251;51.762;8.660;2023-02-01T15:33:08;3.20;99.90
12374;DHT22;6251;51.762;8.660;2023-02-01T15:43:14;0.90;99.90
12374;DHT22;6251;51.762;8.660;2023-02-01T15:53:19;0.70;99.90
12374;DHT22;6251;51.762;8.660;2023-02-01T16:13:27;2.00;99.90
12374;DHT22;6251;51.762;8.660;2023-02-01T16:23:28;2.60;99.90
12374;DHT22;6251;51.762;8.660;2023-02-01T16:33:29;3.40;99.90
12374;DHT22;6251;51.762;8.660;2023-02-01T16:43:30;3.40;99.90
12374;DHT22;6251;51.762;8.660;2023-02-01T16:53:31;3.40;99.90
12374;DHT22;6251;51.762;8.660;2023-02-01T17:03:31;3.40;99.90
12374;DHT22;6251;51.762;8.660;2023-02-01T17:13:35;3.60;99.90
12374;DHT22;6251;51.762;8.660;2023-02-01T17:23:36;3.50;99.90
12374;DHT22;6251;51.762;8.660;2023-02-01T17:33:40;3.50;99.90
12374;DHT22;6251;51.762;8.660;2023-02-01T17:43:41;3.40;99.90
12374;DHT22;6251;51.762;8.660;2023-02-01T17:53:41;3.50;99.90
12374;DHT22;6251;51.762;8.660;2023-02-01T18:03:42;3.80;99.90
12374;DHT22;6251;51.762;8.660;2023-02-01T18:13:43;3.90;99.90
12374;DHT22;6251;51.762;8.660;2023-02-01T18:23:44;3.90;99.90
12374;DHT22;6251;51.762;8.660;2023-02-01T18:33:45;3.70;99.90
12374;DHT22;6251;51.762;8.660;2023-02-01T18:43:45;3.60;99.90
12374;DHT22;6251;51.762;8.660;2023-02-01T18:53:47;3.40;99.90
12374;DHT22;6251;51.762;8.660;2023-02-01T19:03:48;3.30;99.90
12374;DHT22;6251;51.762;8.660;2023-02-01T19:13:49;3.60;99.90
12374;DHT22;6251;51.762;8.660;2023-02-01T19:23:50;3.70;99.90
12374;DHT22;6251;51.762;8.660;2023-02-01T19:33:51;3.70;99.90
12374;DHT22;6251;51.762;8.660;2023-02-01T19:43:51;3.90;99.90
12374;DHT22;6251;51.762;8.660;2023-02-01T19:53:52;4.00;99.90
12374;DHT22;6251;51.762;8.660;2023-02-01T20:03:52;4.10;99.90
12374;DHT22;6251;51.762;8.660;2023-02-01T20:13:54;4.10;99.90
12374;DHT22;6251;51.762;8.660;2023-02-01T20:23:54;3.90;99.90
12374;DHT22;6251;51.762;8.660;2023-02-01T20:33:56;3.70;99.90
12374;DHT22;6251;51.762;8.660;2023-02-01T20:44:04;3.60;99.90
12374;DHT22;6251;51.762;8.660;2023-02-01T20:54:09;3.60;99.90
12374;DHT22;6251;51.762;8.660;2023-02-01T21:04:09;3.60;99.90
12374;DHT22;6251;51.762;8.660;2023-02-01T21:14:10;3.50;99.90
12374;DHT22;6251;51.762;8.660;2023-02-01T21:24:11;3.50;99.90
12374;DHT22;6251;51.762;8.660;2023-02-01T21:34:11;3.70;99.90
12374;DHT22;6251;51.762;8.660;2023-02-01T21:44:12;3.80;99.90
12374;DHT22;6251;51.762;8.660;2023-02-01T21:54:14;3.90;99.90
12374;DHT22;6251;51.762;8.660;2023-02-01T22:04:14;4.00;99.90
12374;DHT22;6251;51.762;8.660;2023-02-01T22:14:15;3.90;99.90
